Flight Track Log - Related Links

Times and Time Zones

All times are in EDT time to prevent confusion due to time zone crossing. See the SAS4755 flight status page for this flight to view local times or setup timezone preferences in your user account.

Time Position Orientation Groundspeed Altitude Reporting Facility
EDT Latitude Longitude Course Direction KTS MPH feet Rate Location/Type
Wed 03:51:11 AM 60.2730 10.8900 192° South 341 392 8,100  Level FlightAware ADS-B
Wed 03:51:26 AM 60.2510 10.8770 196° South 354 407 8,600 2,550 Climbing FlightAware ADS-B
Wed 03:51:51 AM 60.2130 10.8490 200° South 362 417 9,800 3,257 Climbing FlightAware ADS-B
Wed 03:52:36 AM 60.1450 10.7990 200° South 359 413 12,400 3,203 Climbing FlightAware ADS-B
Wed 03:53:49 AM 60.0370 10.7230 199° South 353 406 16,100 2,972 Climbing FlightAware ADS-B
Wed 03:54:25 AM 59.9800 10.7000 191° South 351 404 17,800 2,415 Climbing FlightAware ADS-B
Wed 03:55:11 AM 59.9030 10.6800 187° South 362 417 19,400 2,024 Climbing FlightAware ADS-B
Wed 03:55:48 AM 59.8420 10.6630 188° South 373 429 20,600 1,926 Climbing FlightAware ADS-B
Wed 03:56:32 AM 59.7650 10.6420 188° South 382 440 22,000 2,118 Climbing FlightAware ADS-B
Wed 03:57:13 AM 59.6920 10.6230 187° South 379 436 23,600 2,022 Climbing FlightAware ADS-B
Wed 03:58:01 AM 59.6100 10.6010 188° South 384 442 25,000 2,250 Climbing FlightAware ADS-B
Wed 03:58:41 AM 59.5410 10.5830 188° South 367 422 26,900 2,550 Climbing FlightAware ADS-B
Wed 03:59:21 AM 59.4770 10.5670 187° South 358 412 28,400 1,113 Climbing FlightAware ADS-B
Wed 04:00:18 AM 59.3680 10.5390 187° South 396 456 28,700 750 Climbing FlightAware ADS-B
Wed 04:01:45 AM 59.2240 10.5020 187° South 407 468 30,200 1,456 Climbing FlightAware ADS-B
Wed 04:02:34 AM 59.1200 10.4750 188° South 394 453 32,000 2,110 Climbing FlightAware ADS-B
Wed 04:03:16 AM 59.0430 10.4560 187° South 381 438 33,400 1,786 Climbing FlightAware ADS-B
Wed 04:03:58 AM 58.9720 10.4380 187° South 372 428 34,500 1,259 Climbing FlightAware ADS-B
Wed 04:04:37 AM 58.9070 10.4220 187° South 372 428 35,100 667 Climbing FlightAware ADS-B
Wed 04:05:19 AM 58.8320 10.4030 187° South 382 440 35,400 488 Climbing FlightAware ADS-B
Wed 04:06:03 AM 58.7530 10.3840 187° South 391 450 35,800 409 Climbing FlightAware ADS-B
Wed 04:06:47 AM 58.6750 10.3640 188° South 399 459 36,000 150 Climbing FlightAware ADS-B
Wed 04:07:23 AM 58.6090 10.3470 188° South 400 460 36,000  Level FlightAware ADS-B
Wed 04:08:09 AM 58.5250 10.3370 184° South 395 455 36,000  Level FlightAware ADS-B
Wed 04:08:51 AM 58.4490 10.3290 183° South 394 453 36,000  Level FlightAware ADS-B
Wed 04:09:33 AM 58.3720 10.3220 183° South 394 453 36,000  Level FlightAware ADS-B
Wed 04:10:12 AM 58.3010 10.3140 183° South 393 452 36,000  Level FlightAware ADS-B
Wed 04:10:55 AM 58.2240 10.3060 183° South 392 451 36,000  Level FlightAware ADS-B
Wed 04:11:39 AM 58.1440 10.2970 183° South 390 449 36,000  Level FlightAware ADS-B
Wed 04:12:23 AM 58.0660 10.2900 183° South 388 447 36,000  Level FlightAware ADS-B
Wed 04:13:03 AM 57.9930 10.2830 183° South 390 449 36,000  Level FlightAware ADS-B
Wed 04:13:45 AM 57.9180 10.2750 183° South 397 457 36,000  Level FlightAware ADS-B
Wed 04:14:25 AM 57.8450 10.2680 183° South 398 458 36,000  Level FlightAware ADS-B
Wed 04:15:26 AM 57.7330 10.2560 183° South 399 459 36,000  Level FlightAware ADS-B
Wed 04:16:49 AM 57.5790 10.2410 183° South 401 461 36,000  Level FlightAware ADS-B
Wed 04:17:31 AM 57.5020 10.2330 183° South 401 461 36,000  Level FlightAware ADS-B
Wed 04:18:05 AM 57.4400 10.2270 183° South 401 461 36,000  Level FlightAware ADS-B
Wed 04:18:54 AM 57.3470 10.2180 183° South 402 463 36,000  Level FlightAware ADS-B
Wed 04:19:35 AM 57.2710 10.2100 183° South 404 465 36,000  Level FlightAware ADS-B
Wed 04:20:03 AM 57.2200 10.2050 183° South 405 466 36,000  Level FlightAware ADS-B
Wed 04:20:47 AM 57.1370 10.1970 183° South 405 466 36,000  Level FlightAware ADS-B
Wed 04:21:21 AM 57.0750 10.1910 183° South 404 465 36,000  Level FlightAware ADS-B
Wed 04:22:06 AM 56.9890 10.1830 183° South 403 464 36,000  Level FlightAware ADS-B
Wed 04:22:50 AM 56.9080 10.1750 183° South 403 464 36,000  Level FlightAware ADS-B
Wed 04:23:30 AM 56.8330 10.1680 183° South 404 465 36,000  Level FlightAware ADS-B
Wed 04:24:18 AM 56.7440 10.1600 183° South 406 467 36,000  Level FlightAware ADS-B
Wed 04:24:58 AM 56.6690 10.1520 183° South 408 470 36,000 225 Level FlightAware ADS-B
Wed 04:25:38 AM 56.5970 10.1460 183° South 408 470 36,300 585 Climbing FlightAware ADS-B
Wed 04:26:20 AM 56.5170 10.1380 183° South 408 470 36,800 628 Climbing FlightAware ADS-B
Wed 04:27:04 AM 56.4340 10.1310 183° South 411 473 37,200 409 Climbing FlightAware ADS-B
Wed 04:27:48 AM 56.3490 10.1230 183° South 419 482 37,400 361 Climbing FlightAware ADS-B
Wed 04:28:27 AM 56.2720 10.1150 183° South 420 483 37,700 434 Climbing FlightAware ADS-B
Wed 04:29:11 AM 56.1860 10.1070 183° South 419 482 38,000 214 Climbing FlightAware ADS-B
Wed 04:29:51 AM 56.1100 10.1000 183° South 417 480 38,000  Level FlightAware ADS-B
Wed 04:30:36 AM 56.0250 10.0930 183° South 420 483 38,000  Level FlightAware ADS-B
Wed 04:31:16 AM 55.9450 10.0850 183° South 424 488 38,000  Level FlightAware ADS-B
Wed 04:32:00 AM 55.8590 10.0770 183° South 426 490 38,000  Level FlightAware ADS-B
Wed 04:32:38 AM 55.7850 10.0710 183° South 427 491 38,000  Level FlightAware ADS-B
Wed 04:33:24 AM 55.6930 10.0630 183° South 427 491 38,000  Level FlightAware ADS-B
Wed 04:34:04 AM 55.6160 10.0560 183° South 428 493 38,000  Level FlightAware ADS-B
Wed 04:34:48 AM 55.5290 10.0480 183° South 429 494 38,000  Level FlightAware ADS-B
Wed 04:35:40 AM 55.4270 10.0390 183° South 429 494 38,000  Level FlightAware ADS-B
Wed 04:36:48 AM 55.2950 10.0370 180° South 429 494 38,000 -52 Level FlightAware ADS-B
Wed 04:37:36 AM 55.1960 10.0430 178° South 429 494 37,900 -477 Descending FlightAware ADS-B
Wed 04:38:16 AM 55.1170 10.0470 178° South 434 499 37,300 -675 Descending FlightAware ADS-B
Wed 04:38:56 AM 55.0360 10.0510 178° South 437 503 37,000 -214 Descending FlightAware ADS-B
Wed 04:39:40 AM 54.9480 10.0550 179° South 438 504 37,000  Level FlightAware ADS-B
Wed 04:40:22 AM 54.8630 10.0590 178° South 440 506 37,000  Level FlightAware ADS-B
Wed 04:41:06 AM 54.7760 10.0640 178° South 441 507 37,000  Level FlightAware ADS-B
Wed 04:41:46 AM 54.6920 10.0680 178° South 441 507 37,000  Level FlightAware ADS-B
Wed 04:42:30 AM 54.6030 10.0720 179° South 441 507 37,000  Level FlightAware ADS-B
Wed 04:43:06 AM 54.5300 10.0760 178° South 442 509 37,000  Level FlightAware ADS-B
Wed 04:43:50 AM 54.4390 10.0800 179° South 442 509 37,000  Level FlightAware ADS-B
Wed 04:44:34 AM 54.3490 10.0840 179° South 440 506 37,000  Level FlightAware ADS-B
Wed 04:45:10 AM 54.2770 10.0870 179° South 439 505 37,000  Level FlightAware ADS-B
Wed 04:45:56 AM 54.1860 10.0920 178° South 439 505 37,000  Level FlightAware ADS-B
Wed 04:46:36 AM 54.1050 10.0960 178° South 438 504 37,000  Level FlightAware ADS-B
Wed 04:47:23 AM 54.0080 10.1000 179° South 438 504 37,000  Level FlightAware ADS-B
Wed 04:48:03 AM 53.9280 10.1040 178° South 439 505 37,000  Level FlightAware ADS-B
Wed 04:48:47 AM 53.8390 10.1080 178° South 440 506 37,000  Level FlightAware ADS-B
Wed 04:49:27 AM 53.7560 10.1130 178° South 442 509 37,000  Level FlightAware ADS-B
Wed 04:50:09 AM 53.6710 10.1160 179° South 444 511 37,000  Level FlightAware ADS-B
Wed 04:50:53 AM 53.5810 10.1200 178° South 446 513 37,000  Level FlightAware ADS-B
Wed 04:51:33 AM 53.4990 10.1240 178° South 441 507 37,000  Level FlightAware ADS-B
Wed 04:52:13 AM 53.4190 10.1280 178° South 436 502 37,000  Level FlightAware ADS-B
Wed 04:52:57 AM 53.3300 10.1320 178° South 436 502 37,000  Level FlightAware ADS-B
Wed 04:53:41 AM 53.2410 10.1360 178° South 436 502 37,000  Level FlightAware ADS-B
Wed 04:54:21 AM 53.1610 10.1390 179° South 437 503 37,000  Level FlightAware ADS-B
Wed 04:55:05 AM 53.0710 10.1440 178° South 438 504 37,000  Level FlightAware ADS-B
Wed 04:55:42 AM 52.9970 10.1470 179° South 438 504 37,000  Level FlightAware ADS-B
Wed 04:56:27 AM 52.9080 10.1510 178° South 438 504 37,000  Level FlightAware ADS-B
Wed 04:57:09 AM 52.8230 10.1550 178° South 438 504 37,000  Level FlightAware ADS-B
Wed 04:58:18 AM 52.7020 10.1610 178° South 437 503 37,000  Level FlightAware ADS-B
Wed 04:58:58 AM 52.6190 10.1640 179° South 438 504 37,000 -375 Level FlightAware ADS-B
Wed 04:59:38 AM 52.5380 10.1670 179° South 437 503 36,500 -865 Descending FlightAware ADS-B
Wed 05:00:42 AM 52.4050 10.1740 178° South 437 503 35,500 -936 Descending FlightAware ADS-B
Wed 05:01:27 AM 52.3170 10.1780 178° South 432 497 34,800 -1,047 Descending FlightAware ADS-B
Wed 05:02:08 AM 52.2180 10.1820 179° South 434 499 34,000 -539 Descending FlightAware ADS-B
Wed 05:02:56 AM 52.1160 10.1860 179° South 442 509 34,000  Level FlightAware ADS-B
Wed 05:03:36 AM 52.0350 10.1900 178° South 443 510 34,000  Level FlightAware ADS-B
Wed 05:04:20 AM 51.9480 10.1940 178° South 443 510 34,000 -286 Level FlightAware ADS-B
Wed 05:05:00 AM 51.8640 10.1970 179° South 426 490 33,600 -789 Descending FlightAware ADS-B
Wed 05:05:36 AM 51.7930 10.2000 179° South 447 514 33,000 -1,553 Descending FlightAware ADS-B
Wed 05:06:25 AM 51.6930 10.2040 179° South 447 514 31,400 -2,129 Descending FlightAware ADS-B
Wed 05:07:09 AM 51.6000 10.2080 178° South 437 503 29,700 -2,250 Descending FlightAware ADS-B
Wed 05:07:45 AM 51.5280 10.2110 179° South 429 494 28,400 -2,122 Descending FlightAware ADS-B
Wed 05:08:31 AM 51.4390 10.2140 179° South 418 481 26,800 -2,093 Descending FlightAware ADS-B
Wed 05:09:11 AM 51.3650 10.2180 178° South 410 472 25,400 -1,256 Descending FlightAware ADS-B
Wed 05:09:57 AM 51.2780 10.2140 182° South 408 470 25,000 -483 Descending FlightAware ADS-B
Wed 05:10:38 AM 51.2100 10.1710 202° Southwest 406 467 24,700 -1,063 Descending FlightAware ADS-B
Wed 05:11:33 AM 51.1150 10.0920 208° Southwest 413 475 23,300 -1,546 Descending FlightAware ADS-B
Wed 05:12:15 AM 51.0520 10.0170 217° Southwest 406 467 22,200 -1,443 Descending FlightAware ADS-B
Wed 05:12:52 AM 51.0020 9.9570 217° Southwest 402 463 21,400 -1,481 Descending FlightAware ADS-B
Wed 05:13:32 AM 50.9390 9.8790 218° Southwest 401 461 20,300 -1,483 Descending FlightAware ADS-B
Wed 05:14:21 AM 50.8680 9.7940 217° Southwest 408 470 19,200 -1,479 Descending FlightAware ADS-B
Wed 05:15:54 AM 50.7300 9.6270 217° Southwest 408 470 16,800 -1,600 Descending FlightAware ADS-B
Wed 05:16:36 AM 50.6630 9.5480 217° Southwest 400 460 15,600 -1,683 Descending FlightAware ADS-B
Wed 05:17:16 AM 50.6080 9.4820 217° Southwest 388 447 14,500 -1,700 Descending FlightAware ADS-B
Wed 05:18:36 AM 50.4920 9.3440 217° Southwest 369 425 12,200 -1,730 Descending FlightAware ADS-B
Wed 05:19:07 AM 50.4470 9.3050 209° Southwest 368 423 11,300 -960 Descending FlightAware ADS-B
Wed 05:19:51 AM 50.3840 9.2470 210° Southwest 332 382 11,000 -212 Descending FlightAware ADS-B
Wed 05:20:32 AM 50.3330 9.1970 212° Southwest 292 336 11,000 -369 Level FlightAware ADS-B
Wed 05:20:56 AM 50.3020 9.2040 172° South 292 336 10,600 -923 Descending FlightAware ADS-B
Wed 05:21:37 AM 50.2500 9.2320 161° South 275 316 10,000 -909 Descending FlightAware ADS-B
Wed 05:22:02 AM 50.2200 9.2480 161° South 269 310 9,600 -1,138 Descending FlightAware ADS-B
Wed 05:22:35 AM 50.1850 9.2330 195° South 258 297 8,900 -1,375 Descending FlightAware ADS-B
Wed 05:22:50 AM 50.1790 9.2070 250° West 247 284 8,500 -1,174 Descending FlightAware ADS-B
Wed 05:23:21 AM 50.1760 9.1550 265° West 240 276 8,000 -1,119 Descending FlightAware ADS-B
Wed 05:23:49 AM 50.1740 9.1040 267° West 235 270 7,400 -906 Descending FlightAware ADS-B
Wed 05:24:14 AM 50.1690 9.0660 258° West 217 250 7,200 -450 Descending FlightAware ADS-B
Wed 05:24:29 AM 50.1660 9.0440 258° West 206 237 7,100 -558 Descending FlightAware ADS-B
Wed 05:24:57 AM 50.1580 9.0070 251° West 190 219 6,800 -792 Descending FlightAware ADS-B
Wed 05:25:22 AM 50.1510 8.9750 251° West 181 208 6,400 -792 Descending FlightAware ADS-B
Wed 05:25:50 AM 50.1420 8.9410 248° West 176 203 6,100 -1,034 Descending FlightAware ADS-B
Wed 05:26:20 AM 50.1340 8.9060 250° West 187 215 5,400 -1,269 Descending FlightAware ADS-B
Wed 05:26:42 AM 50.1270 8.8760 250° West 189 217 5,000 -1,071 Descending FlightAware ADS-B
Wed 05:27:16 AM 50.1170 8.8340 250° West 187 215 4,400 -1,143 Descending FlightAware ADS-B
Wed 05:27:45 AM 50.1090 8.7980 251° West 183 211 3,800 -1,171 Descending FlightAware ADS-B
Wed 05:27:57 AM 50.1050 8.7830 247° West 177 204 3,600 -1,000 Descending FlightAware ADS-B
Wed 05:28:27 AM 50.0970 8.7500 249° West 175 201 3,100 -1,034 Descending FlightAware ADS-B
Wed 05:28:55 AM 50.0890 8.7150 250° West 175 201 2,600 -1,034 Descending FlightAware ADS-B
Wed 05:29:25 AM 50.0810 8.6830 249° West 174 200 2,100 -1,000 Descending FlightAware ADS-B
Wed 05:29:37 AM 50.0770 8.6660 250° West 174 200 1,900 -1,091 Descending FlightAware ADS-B
Wed 05:29:58 AM 50.0710 8.6400 250° West 160 184 1,500 -931 Descending FlightAware ADS-B
Wed 05:31:33 AM 50.0480 8.5420 250° West 149 171 100 -884 Descending FlightAware ADS-B
Wed 05:34:00 AM 50.0264 8.5431 178° South  Level Estimated
Wed 05:35:00 AM 50.0264 8.5431 73° East  Level Estimated
Wed 05:36:00 AM 50.0264 8.5431 73° East  Level Estimated
Wed 05:37:00 AM 50.0264 8.5431 73° East  Level Estimated
Wed 05:38:00 AM 50.0264 8.5431 73° East  Level Estimated
Wed 05:39:00 AM 50.0264 8.5431 73° East  Level Estimated
Wed 05:39:53 AM 50.0410 8.5600 33° Northeast 9 10  Level FlightAware ADS-B
Wed 05:40:29 AM 50.0410 8.5630 90° East 19 22  Level FlightAware ADS-B
Wed 05:40:48 AM 50.0420 8.5660 63° Northeast 21 24  Level FlightAware ADS-B
Wed 05:41:14 AM 50.0430 8.5700 69° East 20 23  Level FlightAware ADS-B
Wed 05:42:29 AM 50.0460 8.5810 67° East 21 24  Level FlightAware ADS-B
Wed 05:45:00 AM 50.0264 8.5431 231° Southwest  Level Estimated

Login

Don't have an account? Register now (free) for customized features, flight alerts, and more!